Time;durP1;ratioP1;P1;durP2;ratioP2;P2;SDS_P1;SDS_P2;PMS_P1;PMS_P2;Temp;Humidity;BMP_temperature;BMP_pressure;BME280_temperature;BME280_humidity;BME280_pressure;Samples;Min_cycle;Max_cycle;Signal;HPM_P1;HPM_P2
2022/08/28 00:00:29;;;;;;;;;;;;;;;;;;6276568;28;20196;-72
2022/08/28 00:03:32;;;;;;;;;;;;;;;;;;6278075;28;19927;-68
2022/08/28 00:06:34;;;;;;;;;;;;;;;;;;6282808;28;19921;-70
2022/08/28 00:09:35;;;;;;;;;;;;;;;;;;6279793;28;19921;-74
2022/08/28 00:12:37;;;;;;;;;;;;;;;;;;6279409;28;20088;-69
2022/08/28 00:15:39;;;;;;;;;;;;;;;;;;6279650;28;19929;-69
2022/08/28 00:18:41;;;;;;;;;;;;;;;;;;6282369;28;19948;-69
2022/08/28 00:21:43;;;;;;;;;;;;;;;;;;6282544;28;19974;-69
2022/08/28 00:24:45;;;;;;;;;;;;;;;;;;6280580;28;19967;-70
2022/08/28 00:27:52;;;;;;;;;;;;;;;;;;6278895;28;19966;-69
2022/08/28 00:30:54;;;;;;;;;;;;;;;;;;6279215;28;19925;-68
2022/08/28 00:33:57;;;;;;;;;;;;;;;;;;6279767;28;19921;-70
2022/08/28 00:36:59;;;;;;;;;;;;;;;;;;6274013;28;19921;-69
2022/08/28 00:40:00;;;;;;;;;;;;;;;;;;6281979;28;19932;-70
2022/08/28 00:43:02;;;;;;;;;;;;;;;;;;6281086;28;19921;-72
2022/08/28 00:46:04;;;;;;;;;;;;;;;;;;6278689;28;19933;-69
2022/08/28 00:49:08;;;;;;;;;;;;;;;;;;6276864;28;19967;-71
2022/08/28 00:52:10;;;;;;;;;;;;;;;;;;6279029;28;19958;-68
2022/08/28 00:55:13;;;;;;;;;;;;;;;;;;6279285;28;19928;-68
2022/08/28 00:58:15;;;;;;;;;;;;;;;;;;6279997;28;19921;-68
2022/08/28 01:01:16;;;;;;;;;;;;;;;;;;6279613;28;20233;-74
2022/08/28 01:04:20;;;;;;;;;;;;;;;;;;6279296;28;19929;-68
2022/08/28 01:07:22;;;;;;;;;;;;;;;;;;6278652;28;19941;-72
2022/08/28 01:10:23;;;;;;;;;;;;;;;;;;6279357;28;20007;-69
2022/08/28 01:13:25;;;;;;;;;;;;;;;;;;6278315;28;20006;-68
2022/08/28 01:16:27;;;;;;;;;;;;;;;;;;6276756;28;20103;-68
2022/08/28 01:19:31;;;;;;;;;;;;;;;;;;6278058;28;20125;-68
2022/08/28 01:22:36;;;;;;;;;;;;;;;;;;6277977;28;19960;-70
2022/08/28 01:25:38;;;;;;;;;;;;;;;;;;6279954;28;19932;-69
2022/08/28 01:28:40;;;;;;;;;;;;;;;;;;6277571;28;19928;-70
2022/08/28 01:31:41;;;;;;;;;;;;;;;;;;6277438;28;19925;-68
2022/08/28 01:34:43;;;;;;;;;;;;;;;;;;6278298;28;19959;-68
2022/08/28 01:37:44;;;;;;;;;;;;;;;;;;6276992;28;19921;-69
2022/08/28 01:40:48;;;;;;;;;;;;;;;;;;6279565;28;19921;-68
2022/08/28 01:43:49;;;;;;;;;;;;;;;;;;6278630;28;19924;-69
2022/08/28 01:46:51;;;;;;;;;;;;;;;;;;6277755;28;20119;-68
2022/08/28 01:49:53;;;;;;;;;;;;;;;;;;6277521;28;20200;-67
2022/08/28 01:52:54;;;;;;;;;;;;;;;;;;6277606;28;19927;-68
2022/08/28 01:55:57;;;;;;;;;;;;;;;;;;6274179;28;20238;-67
2022/08/28 01:58:59;;;;;;;;;;;;;;;;;;6278804;28;20003;-68
2022/08/28 02:02:00;;;;;;;;;;;;;;;;;;6276647;28;19932;-68
2022/08/28 02:05:02;;;;;;;;;;;;;;;;;;6275573;28;19936;-68
2022/08/28 02:08:04;;;;;;;;;;;;;;;;;;6279321;28;19948;-67
2022/08/28 02:11:07;;;;;;;;;;;;;;;;;;6282879;28;19933;-68
2022/08/28 02:14:09;;;;;;;;;;;;;;;;;;6280793;28;19932;-67
2022/08/28 02:17:10;;;;;;;;;;;;;;;;;;6279089;28;19967;-67
2022/08/28 02:20:12;;;;;;;;;;;;;;;;;;6278138;28;19929;-68
2022/08/28 02:23:13;;;;;;;;;;;;;;;;;;6277695;28;20203;-68
2022/08/28 02:26:16;;;;;;;;;;;;;;;;;;6277856;28;19928;-72
2022/08/28 02:29:18;;;;;;;;;;;;;;;;;;6274583;28;19951;-67
2022/08/28 02:32:19;;;;;;;;;;;;;;;;;;6274619;28;19928;-68
2022/08/28 02:35:21;;;;;;;;;;;;;;;;;;6275268;28;20120;-67
2022/08/28 02:38:23;;;;;;;;;;;;;;;;;;6270915;28;19932;-68
2022/08/28 02:41:26;;;;;;;;;;;;;;;;;;6275229;28;20014;-68
2022/08/28 02:44:27;;;;;;;;;;;;;;;;;;6273299;28;19967;-68
2022/08/28 02:47:29;;;;;;;;;;;;;;;;;;6277325;28;19927;-67
2022/08/28 02:50:30;;;;;;;;;;;;;;;;;;6275954;28;19951;-67
2022/08/28 02:53:32;;;;;;;;;;;;;;;;;;6274788;28;19921;-68
2022/08/28 02:56:35;;;;;;;;;;;;;;;;;;6272471;28;20204;-67
2022/08/28 02:59:36;;;;;;;;;;;;;;;;;;6277700;28;19924;-70
2022/08/28 03:02:38;;;;;;;;;;;;;;;;;;6275639;28;20223;-68
2022/08/28 03:05:39;;;;;;;;;;;;;;;;;;6276344;28;19925;-68
2022/08/28 03:08:41;;;;;;;;;;;;;;;;;;6276730;28;19999;-71
2022/08/28 03:11:44;;;;;;;;;;;;;;;;;;6273616;28;20182;-70
2022/08/28 03:14:45;;;;;;;;;;;;;;;;;;6275869;28;19987;-68
2022/08/28 03:17:47;;;;;;;;;;;;;;;;;;6274034;28;19962;-68
2022/08/28 03:20:48;;;;;;;;;;;;;;;;;;6274669;28;20203;-68
2022/08/28 03:23:50;;;;;;;;;;;;;;;;;;6274361;28;19921;-67
2022/08/28 03:26:53;;;;;;;;;;;;;;;;;;6274305;28;19963;-67
2022/08/28 03:29:54;;;;;;;;;;;;;;;;;;6274969;28;19920;-72
2022/08/28 03:32:56;;;;;;;;;;;;;;;;;;6275642;28;19928;-68
2022/08/28 03:35:58;;;;;;;;;;;;;;;;;;6276151;28;19928;-68
2022/08/28 03:39:00;;;;;;;;;;;;;;;;;;6281408;28;20137;-70
2022/08/28 03:42:03;;;;;;;;;;;;;;;;;;6277507;28;19997;-70
2022/08/28 03:45:05;;;;;;;;;;;;;;;;;;6282401;28;19929;-70
2022/08/28 03:48:07;;;;;;;;;;;;;;;;;;6280829;28;19928;-68
2022/08/28 03:51:08;;;;;;;;;;;;;;;;;;6280926;28;19991;-68
2022/08/28 03:54:10;;;;;;;;;;;;;;;;;;6279092;28;19921;-67
2022/08/28 03:57:13;;;;;;;;;;;;;;;;;;6277920;28;20100;-68
2022/08/28 04:00:15;;;;;;;;;;;;;;;;;;6279683;28;20123;-73
2022/08/28 04:03:16;;;;;;;;;;;;;;;;;;6278667;28;19927;-68
2022/08/28 04:06:18;;;;;;;;;;;;;;;;;;6280205;28;19920;-68
2022/08/28 04:09:20;;;;;;;;;;;;;;;;;;6279683;28;19936;-67
2022/08/28 04:12:22;;;;;;;;;;;;;;;;;;6279701;28;19920;-67
2022/08/28 04:15:24;;;;;;;;;;;;;;;;;;6281770;28;19920;-68
2022/08/28 04:18:25;;;;;;;;;;;;;;;;;;6278773;28;19928;-68
2022/08/28 04:21:27;;;;;;;;;;;;;;;;;;6280057;28;19924;-70
2022/08/28 04:24:29;;;;;;;;;;;;;;;;;;6280229;28;19980;-67
2022/08/28 04:27:31;;;;;;;;;;;;;;;;;;6280551;28;19971;-67
2022/08/28 04:30:33;;;;;;;;;;;;;;;;;;6278430;28;19978;-68
2022/08/28 04:33:35;;;;;;;;;;;;;;;;;;6279366;28;19929;-68
2022/08/28 04:36:36;;;;;;;;;;;;;;;;;;6278026;28;19925;-68
2022/08/28 04:39:38;;;;;;;;;;;;;;;;;;6279319;28;20228;-73
2022/08/28 04:42:41;;;;;;;;;;;;;;;;;;6278163;28;19944;-69
2022/08/28 04:45:43;;;;;;;;;;;;;;;;;;6281417;28;20257;-70
2022/08/28 04:48:44;;;;;;;;;;;;;;;;;;6278324;28;19921;-71
2022/08/28 04:51:47;;;;;;;;;;;;;;;;;;6280162;28;19933;-68
2022/08/28 04:54:48;;;;;;;;;;;;;;;;;;6278231;28;19935;-68
2022/08/28 04:57:51;;;;;;;;;;;;;;;;;;6279417;28;19925;-68
2022/08/28 05:00:53;;;;;;;;;;;;;;;;;;6279363;28;19964;-69
2022/08/28 05:03:56;;;;;;;;;;;;;;;;;;6276846;28;20242;-68
2022/08/28 05:06:57;;;;;;;;;;;;;;;;;;6279364;28;20007;-68
2022/08/28 05:09:59;;;;;;;;;;;;;;;;;;6277520;28;20018;-67
2022/08/28 05:13:02;;;;;;;;;;;;;;;;;;6281077;28;19924;-68
2022/08/28 05:16:03;;;;;;;;;;;;;;;;;;6275940;28;19933;-68
2022/08/28 05:19:05;;;;;;;;;;;;;;;;;;6277974;28;20042;-69
2022/08/28 05:22:08;;;;;;;;;;;;;;;;;;6278233;28;19936;-68
2022/08/28 05:25:10;;;;;;;;;;;;;;;;;;6280322;28;20237;-67
2022/08/28 05:28:13;;;;;;;;;;;;;;;;;;6277956;28;19929;-68
2022/08/28 05:31:15;;;;;;;;;;;;;;;;;;6280176;28;19920;-68
2022/08/28 05:34:17;;;;;;;;;;;;;;;;;;6277765;28;19932;-68
2022/08/28 05:37:18;;;;;;;;;;;;;;;;;;6277831;28;19921;-69
2022/08/28 05:40:21;;;;;;;;;;;;;;;;;;6278468;28;20203;-67
2022/08/28 05:43:24;;;;;;;;;;;;;;;;;;6278143;28;19970;-68
2022/08/28 05:46:27;;;;;;;;;;;;;;;;;;6276263;28;19978;-68
2022/08/28 05:49:28;;;;;;;;;;;;;;;;;;6279199;28;20197;-68
2022/08/28 05:52:29;;;;;;;;;;;;;;;;;;6275572;28;19924;-68
2022/08/28 05:55:31;;;;;;;;;;;;;;;;;;6275114;28;19920;-68
2022/08/28 05:58:34;;;;;;;;;;;;;;;;;;6276513;28;20103;-68
2022/08/28 06:01:36;;;;;;;;;;;;;;;;;;6278138;28;20003;-68
2022/08/28 06:04:39;;;;;;;;;;;;;;;;;;6275760;28;19936;-69
2022/08/28 06:07:40;;;;;;;;;;;;;;;;;;6277609;28;19925;-72
2022/08/28 06:10:42;;;;;;;;;;;;;;;;;;6276587;28;19932;-66
2022/08/28 06:13:45;;;;;;;;;;;;;;;;;;6274298;28;19967;-69
2022/08/28 06:16:47;;;;;;;;;;;;;;;;;;6277448;28;19925;-68
2022/08/28 06:19:49;;;;;;;;;;;;;;;;;;6277521;28;19939;-68
2022/08/28 06:22:50;;;;;;;;;;;;;;;;;;6280729;28;20214;-67
2022/08/28 06:25:52;;;;;;;;;;;;;;;;;;6278943;28;19920;-68
2022/08/28 06:28:54;;;;;;;;;;;;;;;;;;6276012;28;19974;-71
2022/08/28 06:31:57;;;;;;;;;;;;;;;;;;6274610;28;19916;-74
2022/08/28 06:34:58;;;;;;;;;;;;;;;;;;6276787;28;19921;-74
2022/08/28 06:38:00;;;;;;;;;;;;;;;;;;6273879;28;19932;-67
2022/08/28 06:41:02;;;;;;;;;;;;;;;;;;6276089;28;20203;-68
2022/08/28 06:44:04;;;;;;;;;;;;;;;;;;6277066;28;19920;-67
2022/08/28 06:47:06;;;;;;;;;;;;;;;;;;6274674;28;19916;-67
2022/08/28 06:50:07;;;;;;;;;;;;;;;;;;6276137;28;19967;-72
2022/08/28 06:53:09;;;;;;;;;;;;;;;;;;6275736;28;19925;-68
2022/08/28 06:56:12;;;;;;;;;;;;;;;;;;6274646;28;20204;-75
2022/08/28 06:59:14;;;;;;;;;;;;;;;;;;6274623;28;19931;-71
2022/08/28 07:02:17;;;;;;;;;;;;;;;;;;6275422;28;19925;-68
2022/08/28 07:05:18;;;;;;;;;;;;;;;;;;6274789;28;19963;-69
2022/08/28 07:08:21;;;;;;;347.17;29.00;;;;;;;;;;6277117;28;19924;-77
2022/08/28 07:11:24;;;;;;;375.77;37.17;;;;;;;;;;6273528;28;20816;-68
2022/08/28 07:14:27;;;;;;;18.38;10.27;;;;;;;;;;6273562;28;20351;-66
2022/08/28 07:17:29;;;;;;;24.42;9.80;;;;;;;;;;6274907;28;20336;-67
2022/08/28 07:20:31;;;;;;;18.25;9.13;;;;;;;;;;6275168;28;20102;-70
2022/08/28 07:23:34;;;;;;;12.82;8.48;;;;;;;;;;6275504;28;20098;-69
2022/08/28 07:26:36;;;;;;;15.90;8.75;;;;;;;;;;6274978;28;20115;-68
2022/08/28 07:29:39;;;;;;;10.90;8.55;;;;;;;;;;6274300;28;20074;-72
2022/08/28 07:32:42;;;;;;;13.23;8.07;;;;;;;;;;6274068;28;20086;-69
2022/08/28 07:35:44;;;;;;;12.60;8.20;;;;;;;;;;6275541;28;20345;-68
2022/08/28 07:38:46;;;;;;;10.93;8.30;;;;;;;;;;6273738;28;20053;-70
2022/08/28 07:41:49;;;;;;;13.18;8.20;;;;;;;;;;6273232;28;20104;-69
2022/08/28 07:44:53;;;;;;;8.90;7.63;;;;;;;;;;6277152;28;20055;-66
2022/08/28 07:47:55;;;;;;;15.80;13.57;;;;;;;;;;6272635;28;21671;-67
2022/08/28 07:50:57;;;;;;;27.55;24.75;;;;;;;;;;6274842;28;20053;-69
2022/08/28 07:53:58;;;;;;;17.75;13.45;;;;;;;;;;6274823;28;20113;-68
2022/08/28 07:57:01;;;;;;;13.30;9.57;;;;;;;;;;6272797;28;20086;-68
2022/08/28 08:00:06;;;;;;;11.80;9.52;;;;;;;;;;6272840;28;20363;-70
2022/08/28 08:03:08;;;;;;;11.68;9.63;;;;;;;;;;6274224;28;20278;-71
2022/08/28 08:06:12;;;;;;;12.57;9.35;;;;;;;;;;6274110;28;20094;-70
2022/08/28 08:09:16;;;;;;;11.80;8.93;;;;;;;;;;6273394;28;21512;-69
2022/08/28 08:12:18;;;;;;;12.75;9.82;;;;;;;;;;6271988;28;20060;-68
2022/08/28 08:15:21;;;;;;;12.77;9.45;;;;;;;;;;6275856;28;20138;-67
2022/08/28 08:18:22;;;;;;;14.27;8.82;;;;;;;;;;6272232;28;20052;-67
2022/08/28 08:21:24;;;;;;;13.13;8.48;;;;;;;;;;6276964;28;20094;-69
2022/08/28 08:24:27;;;;;;;11.18;7.95;;;;;;;;;;6278817;28;20041;-68
2022/08/28 08:27:28;;;;;;;11.68;7.78;;;;;;;;;;6281172;28;20057;-69
2022/08/28 08:30:31;;;;;;;11.38;7.80;;;;;;;;;;6276615;28;20262;-69
2022/08/28 08:33:33;;;;;;;11.93;7.97;;;;;;;;;;6279027;28;20048;-68
2022/08/28 08:36:37;;;;;;;9.45;8.38;;;;;;;;;;6280058;28;20068;-70
2022/08/28 08:39:40;;;;;;;10.93;8.70;;;;;;;;;;6277871;28;20289;-70
2022/08/28 08:42:45;;;;;;;11.60;8.35;;;;;;;;;;6277340;28;20283;-70
2022/08/28 08:45:50;;;;;;;10.10;8.20;;;;;;;;;;6281801;28;20063;-71
2022/08/28 08:48:52;;;;;;;11.55;8.77;;;;;;;;;;6278454;28;20049;-67
2022/08/28 08:51:59;;;;;;;10.98;7.43;;;;;;;;;;6276715;28;20103;-70
2022/08/28 08:55:25;;;;;;;11.73;8.18;;;;;;;;;;6275695;28;20057;-70
2022/08/28 08:58:32;;;;;;;12.65;9.75;;;;;;;;;;6277661;28;20052;-70
2022/08/28 09:01:39;;;;;;;13.35;9.52;;;;;;;;;;6276945;28;20052;-71
2022/08/28 09:04:45;;;;;;;9.57;7.07;;;;;;;;;;6278723;28;20065;-70
2022/08/28 09:07:51;;;;;;;13.10;9.27;;;;;;;;;;6278096;28;20098;-69
2022/08/28 09:11:01;;;;;;;9.88;7.50;;;;;;;;;;6276269;28;20057;-70
2022/08/28 09:14:07;;;;;;;10.20;7.78;;;;;;;;;;6276034;28;20120;-70
2022/08/28 09:17:10;;;;;;;9.10;8.20;;;;;;;;;;6278214;28;20045;-69
2022/08/28 09:20:16;;;;;;;8.82;7.72;;;;;;;;;;6275932;28;20045;-71
2022/08/28 09:23:18;;;;;;;10.27;7.07;;;;;;;;;;6277218;28;20057;-70
2022/08/28 09:26:22;;;;;;;10.82;7.85;;;;;;;;;;6278455;28;20094;-71
2022/08/28 09:29:27;;;;;;;10.18;7.75;;;;;;;;;;6278433;28;20060;-71
2022/08/28 09:32:33;;;;;;;9.15;7.60;;;;;;;;;;6277584;28;20052;-71
2022/08/28 09:35:37;;;;;;;10.55;8.20;;;;;;;;;;6278123;28;20056;-71
2022/08/28 09:38:38;;;;;;;9.32;7.72;;;;;;;;;;6275528;28;20286;-71
2022/08/28 09:45:15;;;;;;;10.30;7.30;;;;;;;;;;6275954;28;20144;-72
2022/08/28 09:48:20;;;;;;;8.82;7.13;;;;;;;;;;6275256;28;20102;-71
2022/08/28 09:51:28;;;;;;;8.48;5.88;;;;;;;;;;6274923;28;20061;-71
2022/08/28 09:54:33;;;;;;;6.40;5.60;;;;;;;;;;6275718;28;20059;-69
2022/08/28 09:57:34;;;;;;;6.03;5.13;;;;;;;;;;6274424;28;20076;-72
2022/08/28 10:00:38;;;;;;;7.70;6.53;;;;;;;;;;6277591;28;20055;-72
2022/08/28 10:03:47;;;;;;;8.32;6.68;;;;;;;;;;6275201;28;20060;-66
2022/08/28 10:06:52;;;;;;;9.40;7.45;;;;;;;;;;6276789;28;20056;-71
2022/08/28 10:10:01;;;;;;;6.95;5.35;;;;;;;;;;6275742;28;20084;-65
2022/08/28 10:13:06;;;;;;;6.55;5.10;;;;;;;;;;6276137;28;20094;-66
2022/08/28 10:16:20;;;;;;;10.68;5.70;;;;;;;;;;6277815;28;20056;-65
2022/08/28 10:19:38;;;;;;;6.85;5.78;;;;;;;;;;6277037;28;20064;-65
2022/08/28 10:22:44;;;;;;;6.63;5.03;;;;;;;;;;6274495;28;20048;-63
2022/08/28 10:25:49;;;;;;;4.15;3.70;;;;;;;;;;6274993;28;20243;-63
2022/08/28 10:28:57;;;;;;;4.63;4.20;;;;;;;;;;6276413;28;20068;-64
2022/08/28 10:32:11;;;;;;;7.97;4.28;;;;;;;;;;6272366;28;20098;-64
2022/08/28 10:35:19;;;;;;;5.60;3.50;;;;;;;;;;6277441;28;20079;-63
2022/08/28 10:38:26;;;;;;;4.18;3.78;;;;;;;;;;6281276;28;20315;-64
2022/08/28 10:41:31;;;;;;;5.38;4.22;;;;;;;;;;6281194;28;20052;-65
2022/08/28 10:44:36;;;;;;;4.30;3.33;;;;;;;;;;6278601;28;20083;-65
2022/08/28 10:47:41;;;;;;;4.45;4.05;;;;;;;;;;6277967;28;20060;-64
2022/08/28 10:50:48;;;;;;;4.47;3.90;;;;;;;;;;6274647;28;20049;-66
2022/08/28 10:53:53;;;;;;;5.65;3.63;;;;;;;;;;6276850;28;20072;-66
2022/08/28 10:56:58;;;;;;;3.20;2.90;;;;;;;;;;6275893;28;20053;-64
2022/08/28 11:00:05;;;;;;;4.63;3.30;;;;;;;;;;6275909;28;20049;-64
2022/08/28 11:03:10;;;;;;;4.07;3.40;;;;;;;;;;6275670;28;20056;-66
2022/08/28 11:06:18;;;;;;;4.93;4.10;;;;;;;;;;6273800;28;20063;-65
2022/08/28 11:09:30;;;;;;;4.07;3.30;;;;;;;;;;6275460;28;20056;-63
2022/08/28 11:12:38;;;;;;;3.90;3.05;;;;;;;;;;6277079;28;20086;-65
2022/08/28 11:15:43;;;;;;;3.67;3.30;;;;;;;;;;6273300;28;20098;-65
2022/08/28 11:18:58;;;;;;;3.63;2.83;;;;;;;;;;6271531;28;20343;-65
2022/08/28 11:22:04;;;;;;;3.40;3.10;;;;;;;;;;6273995;28;20110;-64
2022/08/28 11:25:13;;;;;;;4.90;3.03;;;;;;;;;;6274075;28;20132;-65
2022/08/28 11:28:18;;;;;;;4.95;3.10;;;;;;;;;;6274259;28;20053;-64
2022/08/28 11:31:30;;;;;;;4.30;3.00;;;;;;;;;;6273424;28;20111;-65
2022/08/28 11:34:57;;;;;;;3.67;2.95;;;;;;;;;;6273289;28;20053;-64
2022/08/28 11:38:00;;;;;;;4.88;3.00;;;;;;;;;;6274349;28;20098;-64
2022/08/28 11:41:12;;;;;;;6.57;2.92;;;;;;;;;;6274977;28;20052;-67
2022/08/28 11:44:40;;;;;;;3.97;2.90;;;;;;;;;;6276224;28;20140;-68
2022/08/28 11:47:45;;;;;;;4.63;3.20;;;;;;;;;;6273349;28;20244;-68
2022/08/28 11:50:53;;;;;;;3.15;2.80;;;;;;;;;;6277249;28;20053;-67
2022/08/28 11:54:03;;;;;;;2.85;2.53;;;;;;;;;;6273085;28;20103;-67
2022/08/28 11:57:08;;;;;;;3.00;2.70;;;;;;;;;;6276427;28;20052;-67
2022/08/28 12:00:10;;;;;;;3.28;2.75;;;;;;;;;;6277626;28;21872;-67
2022/08/28 12:03:14;;;;;;;2.83;2.58;;;;;;;;;;6277136;28;20060;-67
2022/08/28 12:06:53;;;;;;;3.90;2.55;;;;;;;;;;6279816;28;20228;-70
2022/08/28 12:09:57;;;;;;;3.67;2.67;;;;;;;;;;6278799;28;20268;-70
2022/08/28 12:13:00;;;;;;;3.67;2.38;;;;;;;;;;6280301;28;20346;-71
2022/08/28 12:16:06;;;;;;;2.60;2.40;;;;;;;;;;6281325;28;20120;-71
2022/08/28 12:19:09;;;;;;;4.78;2.92;;;;;;;;;;6277733;28;20049;-69
2022/08/28 12:22:12;;;;;;;2.90;2.58;;;;;;;;;;6276448;28;20041;-71
2022/08/28 12:25:24;;;;;;;2.50;2.30;;;;;;;;;;6279815;28;20052;-73
2022/08/28 12:28:28;;;;;;;4.10;2.70;;;;;;;;;;6280236;28;20224;-70
2022/08/28 12:32:12;;;;;;;3.70;2.78;;;;;;;;;;6278253;28;20106;-75
2022/08/28 12:35:19;;;;;;;3.13;2.50;;;;;;;;;;6279968;28;20319;-70
2022/08/28 12:38:21;;;;;;;2.58;2.33;;;;;;;;;;6281096;28;20052;-73
2022/08/28 12:41:24;;;;;;;2.85;2.65;;;;;;;;;;6278337;28;20056;-71
2022/08/28 12:44:28;;;;;;;3.15;2.78;;;;;;;;;;6278660;28;20059;-71
2022/08/28 12:47:30;;;;;;;2.80;2.60;;;;;;;;;;6279810;28;20091;-72
2022/08/28 12:50:35;;;;;;;3.88;2.40;;;;;;;;;;6278570;28;20067;-71
2022/08/28 12:53:39;;;;;;;2.42;2.13;;;;;;;;;;6281601;28;20053;-70
2022/08/28 12:56:42;;;;;;;4.30;2.60;;;;;;;;;;6282070;28;20358;-72
2022/08/28 12:59:47;;;;;;;2.55;2.30;;;;;;;;;;6279484;28;20052;-67
2022/08/28 13:02:50;;;;;;;2.70;2.47;;;;;;;;;;6281253;28;20055;-66
2022/08/28 13:05:57;;;;;;;3.45;2.20;;;;;;;;;;6276732;28;20057;-66
2022/08/28 13:09:00;;;;;;;2.33;2.13;;;;;;;;;;6274767;28;20083;-66
2022/08/28 13:12:04;;;;;;;5.15;2.10;;;;;;;;;;6280019;28;20048;-66
2022/08/28 13:15:08;;;;;;;2.53;2.10;;;;;;;;;;6281562;28;20052;-66
2022/08/28 13:18:10;;;;;;;3.33;2.30;;;;;;;;;;6273101;28;20049;-66
2022/08/28 13:21:23;;;;;;;3.83;2.60;;;;;;;;;;6279510;28;20048;-66
2022/08/28 13:24:28;;;;;;;4.70;2.20;;;;;;;;;;6281343;28;20271;-66
2022/08/28 13:27:31;;;;;;;2.70;2.30;;;;;;;;;;6277992;28;20053;-67
2022/08/28 13:30:34;;;;;;;2.13;1.92;;;;;;;;;;6276926;28;20235;-66
2022/08/28 13:33:36;;;;;;;4.20;2.72;;;;;;;;;;6278342;28;20243;-67
2022/08/28 13:36:44;;;;;;;;;;;;;;;;;;6280017;28;20094;-66
2022/08/28 13:39:46;;;;;;;5.00;2.42;;;;;;;;;;6276184;28;19928;-66
2022/08/28 13:42:49;;;;;;;2.50;2.10;;;;;;;;;;6281103;28;20052;-66
2022/08/28 13:45:52;;;;;;;2.90;2.15;;;;;;;;;;6279547;28;20099;-66
2022/08/28 13:48:53;;;;;;;3.08;2.40;;;;;;;;;;6277818;28;20048;-66
2022/08/28 13:51:56;;;;;;;3.65;2.08;;;;;;;;;;6275279;28;20057;-66
2022/08/28 13:54:57;;;;;;;3.25;2.13;;;;;;;;;;6279473;28;20054;-66
2022/08/28 13:58:00;;;;;;;2.42;2.05;;;;;;;;;;6278134;28;20289;-66
2022/08/28 14:01:02;;;;;;;3.85;2.30;;;;;;;;;;6278398;28;20045;-66
2022/08/28 14:04:03;;;;;;;2.60;2.20;;;;;;;;;;6278784;28;20056;-66
2022/08/28 14:07:06;;;;;;;2.33;2.00;;;;;;;;;;6277978;28;20504;-66
2022/08/28 14:10:09;;;;;;;3.25;2.15;;;;;;;;;;6275800;28;20073;-66
2022/08/28 14:13:12;;;;;;;4.22;2.15;;;;;;;;;;6276796;28;20106;-66
2022/08/28 14:16:15;;;;;;;2.42;1.75;;;;;;;;;;6272404;28;20052;-66
2022/08/28 14:19:17;;;;;;;2.15;1.77;;;;;;;;;;6286530;28;20052;-66
2022/08/28 14:22:18;;;;;;;5.38;1.92;;;;;;;;;;6276456;28;20282;-66
2022/08/28 14:25:20;;;;;;;2.67;1.80;;;;;;;;;;6280797;28;20095;-66
2022/08/28 14:28:23;;;;;;;3.72;1.90;;;;;;;;;;6278191;28;20053;-66
2022/08/28 14:31:25;;;;;;;3.88;1.92;;;;;;;;;;6277491;28;20052;-65
2022/08/28 14:34:26;;;;;;;8.50;1.95;;;;;;;;;;6274566;28;20433;-66
2022/08/28 14:37:28;;;;;;;1.75;1.40;;;;;;;;;;6276673;28;20079;-67
2022/08/28 14:40:30;;;;;;;2.20;1.60;;;;;;;;;;6274113;28;20041;-68
2022/08/28 14:43:33;;;;;;;1.90;1.58;;;;;;;;;;6275616;28;20052;-67
2022/08/28 14:46:36;;;;;;;2.88;1.70;;;;;;;;;;6277195;28;20044;-67
2022/08/28 14:49:38;;;;;;;3.95;1.80;;;;;;;;;;6277392;28;20056;-70
2022/08/28 14:52:39;;;;;;;6.40;1.70;;;;;;;;;;6277982;28;20134;-70
2022/08/28 14:55:42;;;;;;;3.70;1.70;;;;;;;;;;6277335;28;20048;-70
2022/08/28 14:58:45;;;;;;;4.28;2.05;;;;;;;;;;6277515;28;20053;-70
2022/08/28 15:01:48;;;;;;;2.75;2.00;;;;;;;;;;6278227;28;20041;-69
2022/08/28 15:04:50;;;;;;;2.97;1.90;;;;;;;;;;6275500;28;20358;-67
2022/08/28 15:07:51;;;;;;;6.93;2.33;;;;;;;;;;6277011;28;20149;-68
2022/08/28 15:10:53;;;;;;;4.63;2.00;;;;;;;;;;6278253;28;20103;-67
2022/08/28 15:13:57;;;;;;;3.83;1.92;;;;;;;;;;6277681;28;20072;-66
2022/08/28 15:16:58;;;;;;;3.78;2.22;;;;;;;;;;6274743;28;20045;-71
2022/08/28 15:20:00;;;;;;;7.88;2.13;;;;;;;;;;6275489;28;20095;-70
2022/08/28 15:23:02;;;;;;;3.03;2.20;;;;;;;;;;6275012;28;20686;-71
2022/08/28 15:26:03;;;;;;;2.97;2.10;;;;;;;;;;6276698;28;20118;-68
2022/08/28 15:29:06;;;;;;;3.13;2.30;;;;;;;;;;6274283;28;20052;-71
2022/08/28 15:32:08;;;;;;;2.55;2.10;;;;;;;;;;6280048;28;20358;-71
2022/08/28 15:35:10;;;;;;;3.35;2.00;;;;;;;;;;6282837;28;20053;-71
2022/08/28 15:38:12;;;;;;;3.20;2.40;;;;;;;;;;6281299;28;20053;-71
2022/08/28 15:41:25;;;;;;;4.53;2.10;;;;;;;;;;6280783;28;20666;-70
2022/08/28 15:44:28;;;;;;;3.38;2.30;;;;;;;;;;6281587;28;20060;-66
2022/08/28 15:47:30;;;;;;;8.68;2.45;;;;;;;;;;6280389;28;20267;-74
2022/08/28 15:50:31;;;;;;;2.67;2.05;;;;;;;;;;6276490;28;20056;-74
2022/08/28 15:53:33;;;;;;;;;;;;;;;;;;6277822;28;20110;-71
2022/08/28 15:56:35;;;;;;;2.88;1.92;;;;;;;;;;6281119;28;20230;-71
2022/08/28 15:59:38;;;;;;;2.20;1.92;;;;;;;;;;6281965;28;20048;-71
2022/08/28 16:02:40;;;;;;;5.28;2.55;;;;;;;;;;6279571;28;20411;-71
2022/08/28 16:05:41;;;;;;;;;;;;;;;;;;6281382;28;20069;-70
2022/08/28 16:08:44;;;;;;;2.47;2.28;;;;;;;;;;6281814;28;19975;-71
2022/08/28 16:11:45;;;;;;;3.20;2.30;;;;;;;;;;6277358;28;20059;-72
2022/08/28 16:14:49;;;;;;;4.45;2.58;;;;;;;;;;6280871;28;20059;-71
2022/08/28 16:17:51;;;;;;;3.40;2.17;;;;;;;;;;6280769;28;20073;-71
2022/08/28 16:20:52;;;;;;;;;;;;;;;;;;6279244;28;20316;-72
2022/08/28 16:23:54;;;;;;;4.15;2.30;;;;;;;;;;6280198;28;19917;-70
2022/08/28 16:26:56;;;;;;;4.18;2.60;;;;;;;;;;6282396;28;20659;-70
2022/08/28 16:29:59;;;;;;;3.00;2.70;;;;;;;;;;6279334;28;20647;-71
2022/08/28 16:33:02;;;;;;;4.07;2.50;;;;;;;;;;6280428;28;20045;-70
2022/08/28 16:36:06;;;;;;;3.10;2.55;;;;;;;;;;6280086;28;20107;-71
2022/08/28 16:39:10;;;;;;;3.33;2.25;;;;;;;;;;6278671;28;20279;-69
2022/08/28 16:42:12;;;;;;;2.47;2.22;;;;;;;;;;6278963;28;20331;-69
2022/08/28 16:45:15;;;;;;;3.50;2.73;;;;;;;;;;6274729;28;20060;-70
2022/08/28 16:48:17;;;;;;;5.38;2.40;;;;;;;;;;6276041;28;20053;-70
2022/08/28 16:51:20;;;;;;;2.60;2.40;;;;;;;;;;6275162;28;20065;-72
2022/08/28 16:54:22;;;;;;;2.33;2.13;;;;;;;;;;6281210;28;20055;-72
2022/08/28 16:57:24;;;;;;;2.65;2.25;;;;;;;;;;6280320;28;20052;-70
2022/08/28 17:00:27;;;;;;;3.05;2.38;;;;;;;;;;6281770;28;20332;-69
2022/08/28 17:03:28;;;;;;;3.03;2.50;;;;;;;;;;6278262;28;20048;-69
2022/08/28 17:06:31;;;;;;;4.07;2.63;;;;;;;;;;6280467;28;20101;-71
2022/08/28 17:09:33;;;;;;;3.63;2.40;;;;;;;;;;6279693;28;20271;-70
2022/08/28 17:12:35;;;;;;;3.10;2.20;;;;;;;;;;6279622;28;20041;-66
2022/08/28 17:15:37;;;;;;;6.75;2.40;;;;;;;;;;6281450;28;20259;-63
2022/08/28 17:18:40;;;;;;;4.35;2.45;;;;;;;;;;6280618;28;20044;-69
2022/08/28 17:25:02;;;;;;;2.78;2.30;;;;;;;;;;6280446;28;20057;-67
2022/08/28 17:28:04;;;;;;;4.90;2.50;;;;;;;;;;6279082;28;20482;-65
2022/08/28 17:31:07;;;;;;;2.73;2.50;;;;;;;;;;6276898;28;20087;-66
2022/08/28 17:34:09;;;;;;;7.53;2.85;;;;;;;;;;6279730;28;20455;-62
2022/08/28 17:37:11;;;;;;;3.83;2.30;;;;;;;;;;6278519;28;20048;-62
2022/08/28 17:40:16;;;;;;;2.38;2.10;;;;;;;;;;6278459;28;20049;-62
2022/08/28 17:43:18;;;;;;;3.08;2.08;;;;;;;;;;6275796;28;20103;-63
2022/08/28 17:46:21;;;;;;;3.13;2.10;;;;;;;;;;6278079;28;20059;-63
2022/08/28 17:49:22;;;;;;;5.00;3.00;;;;;;;;;;6278487;28;20057;-63
2022/08/28 17:52:24;;;;;;;3.33;2.85;;;;;;;;;;6274988;28;20048;-66
2022/08/28 17:55:25;;;;;;;5.07;3.45;;;;;;;;;;6276453;28;20064;-62
2022/08/28 17:58:27;;;;;;;5.22;3.42;;;;;;;;;;6274674;28;20060;-62
2022/08/28 18:01:30;;;;;;;4.70;2.92;;;;;;;;;;6275721;28;20098;-63
2022/08/28 18:04:31;;;;;;;4.18;3.60;;;;;;;;;;6272451;28;20055;-62
2022/08/28 18:07:33;;;;;;;5.07;3.13;;;;;;;;;;6275695;28;20056;-63
2022/08/28 18:10:36;;;;;;;4.35;3.40;;;;;;;;;;6274439;28;20056;-62
2022/08/28 18:13:37;;;;;;;;;;;;;;;;;;6277632;28;20057;-62
2022/08/28 18:16:40;;;;;;;7.25;3.42;;;;;;;;;;6274239;28;19963;-63
2022/08/28 18:19:42;;;;;;;4.78;3.13;;;;;;;;;;6273357;28;20045;-62
2022/08/28 18:22:45;;;;;;;6.40;3.38;;;;;;;;;;6277695;28;20123;-68
2022/08/28 18:25:48;;;;;;;5.40;3.13;;;;;;;;;;6272915;28;20052;-67
2022/08/28 18:28:50;;;;;;;8.27;3.58;;;;;;;;;;6276689;28;20131;-67
2022/08/28 18:31:53;;;;;;;4.10;2.97;;;;;;;;;;6278188;28;20379;-66
2022/08/28 18:34:55;;;;;;;4.20;2.90;;;;;;;;;;6275267;28;20045;-65
2022/08/28 18:37:57;;;;;;;3.63;2.67;;;;;;;;;;6277105;28;20262;-67
2022/08/28 18:40:58;;;;;;;4.95;3.00;;;;;;;;;;6279912;28;20338;-68
2022/08/28 18:44:00;;;;;;;5.03;3.13;;;;;;;;;;6273301;28;20255;-69
2022/08/28 18:47:03;;;;;;;3.30;3.00;;;;;;;;;;6278058;28;20057;-65
2022/08/28 18:50:06;;;;;;;6.80;3.08;;;;;;;;;;6275645;28;20072;-67
2022/08/28 18:53:08;;;;;;;5.72;3.67;;;;;;;;;;6276865;28;20053;-66
2022/08/28 18:56:10;;;;;;;5.03;3.67;;;;;;;;;;6275092;28;20126;-67
2022/08/28 18:59:11;;;;;;;5.65;3.88;;;;;;;;;;6275500;28;20111;-66
2022/08/28 19:02:15;;;;;;;4.95;3.60;;;;;;;;;;6275729;28;20053;-66
2022/08/28 19:05:17;;;;;;;4.65;3.28;;;;;;;;;;6275009;28;20095;-66
2022/08/28 19:08:18;;;;;;;5.88;4.10;;;;;;;;;;6275167;28;20123;-66
2022/08/28 19:11:21;;;;;;;6.40;4.10;;;;;;;;;;6279330;28;20053;-65
2022/08/28 19:14:23;;;;;;;8.32;4.18;;;;;;;;;;6277891;28;20048;-66
2022/08/28 19:17:27;;;;;;;;;;;;;;;;;;6274071;28;20052;-67